Time;durP1;ratioP1;P1;durP2;ratioP2;P2;SDS_P1;SDS_P2;PMS_P1;PMS_P2;Temp;Humidity;BMP_temperature;BMP_pressure;BME280_temperature;BME280_humidity;BME280_pressure;Samples;Min_cycle;Max_cycle;Signal;HPM_P1;HPM_P2
2022/11/05 00:10:37;;;;;;;4.47;3.43;;;;;;;;;;5077677;28;20184;-77
2022/11/05 00:17:04;;;;;;;4.67;3.90;;;;;;;;;;5056045;28;20208;-78
2022/11/05 00:20:12;;;;;;;4.80;3.70;;;;;;;;;;5044908;28;20690;-79
2022/11/05 00:26:39;;;;;;;5.73;4.10;;;;;;;;;;5081454;28;20183;-77
2022/11/05 00:29:43;;;;;;;6.57;4.83;;;;;;;;;;5046404;28;20520;-78
2022/11/05 00:32:49;;;;;;;6.13;4.93;;;;;;;;;;5068216;28;20618;-78
2022/11/05 00:35:53;;;;;;;6.23;4.43;;;;;;;;;;5068720;28;20626;-78
2022/11/05 00:38:57;;;;;;;6.30;4.70;;;;;;;;;;5045466;28;20183;-78
2022/11/05 00:45:24;;;;;;;9.30;4.47;;;;;;;;;;5057175;28;20179;-77
2022/11/05 00:52:54;;;;;;;6.13;5.17;;;;;;;;;;5056210;28;20228;-78
2022/11/05 00:55:15;;;;;;;6.87;5.10;;;;;;;;;;5067950;28;20203;-78
2022/11/05 00:58:21;;;;;;;6.13;4.70;;;;;;;;;;5067458;28;20519;-78
2022/11/05 01:01:25;;;;;;;9.23;5.03;;;;;;;;;;5056779;28;20223;-78
2022/11/05 01:04:29;;;;;;;6.87;5.50;;;;;;;;;;5056992;28;20199;-78
2022/11/05 01:07:33;;;;;;;11.40;5.10;;;;;;;;;;5055929;28;20543;-77
2022/11/05 01:10:49;;;;;;;11.20;5.60;;;;;;;;;;5044498;28;20190;-78
2022/11/05 01:13:53;;;;;;;7.03;4.80;;;;;;;;;;5068168;28;20188;-78
2022/11/05 01:16:57;;;;;;;6.27;5.07;;;;;;;;;;5068847;28;20199;-77
2022/11/05 01:20:02;;;;;;;7.83;5.90;;;;;;;;;;5057892;28;20200;-78
2022/11/05 01:23:06;;;;;;;6.87;5.33;;;;;;;;;;5036530;28;20184;-78
2022/11/05 01:26:10;;;;;;;5.97;5.30;;;;;;;;;;5032538;28;20207;-78
2022/11/05 01:29:14;;;;;;;7.30;5.43;;;;;;;;;;5043949;28;20211;-78
2022/11/05 01:32:18;;;;;;;6.10;5.03;;;;;;;;;;5040809;28;20227;-78
2022/11/05 01:35:22;;;;;;;10.30;5.80;;;;;;;;;;5045857;28;20188;-78
2022/11/05 01:38:26;;;;;;;7.27;5.47;;;;;;;;;;5047377;28;20176;-78
2022/11/05 01:41:31;;;;;;;6.93;5.40;;;;;;;;;;5037741;28;20224;-77
2022/11/05 01:45:03;;;;;;;8.30;5.53;;;;;;;;;;5066825;28;20179;-77
2022/11/05 01:48:14;;;;;;;9.83;5.50;;;;;;;;;;5066848;28;20207;-78
2022/11/05 01:51:24;;;;;;;7.90;5.87;;;;;;;;;;5055191;28;20227;-78
2022/11/05 01:54:31;;;;;;;6.97;5.50;;;;;;;;;;5066962;28;20195;-77
2022/11/05 01:57:36;;;;;;;6.23;4.87;;;;;;;;;;5035930;28;20208;-78
2022/11/05 02:00:41;;;;;;;6.80;5.73;;;;;;;;;;5046298;28;20219;-78
2022/11/05 02:03:49;;;;;;;7.30;5.67;;;;;;;;;;5047130;28;20531;-78
2022/11/05 02:06:53;;;;;;;8.83;5.50;;;;;;;;;;5046356;28;20216;-78
2022/11/05 02:10:07;;;;;;;7.40;5.67;;;;;;;;;;5034959;28;20172;-78
2022/11/05 02:13:12;;;;;;;8.30;5.40;;;;;;;;;;5045890;28;20204;-78
2022/11/05 02:16:35;;;;;;;6.57;5.73;;;;;;;;;;5036629;28;20643;-78
2022/11/05 02:19:52;;;;;;;7.10;5.83;;;;;;;;;;5047767;28;20651;-78
2022/11/05 02:23:41;;;;;;;8.33;5.50;;;;;;;;;;5024802;28;20536;-79
2022/11/05 02:26:56;;;;;;;5.50;4.73;;;;;;;;;;5057953;28;20177;-79
2022/11/05 02:30:23;;;;;;;8.70;5.27;;;;;;;;;;5024926;28;20192;-78
2022/11/05 02:33:45;;;;;;;7.97;6.10;;;;;;;;;;5047041;28;20196;-79
2022/11/05 02:37:14;;;;;;;8.40;6.13;;;;;;;;;;5023985;28;20180;-79
2022/11/05 02:40:25;;;;;;;7.10;6.00;;;;;;;;;;5035172;28;20180;-78
2022/11/05 02:43:44;;;;;;;8.50;6.20;;;;;;;;;;5034702;28;20612;-79
2022/11/05 02:47:13;;;;;;;8.07;6.43;;;;;;;;;;5034119;28;20188;-79
2022/11/05 02:50:54;;;;;;;8.03;6.77;;;;;;;;;;5035193;28;20176;-79
2022/11/05 02:54:10;;;;;;;8.57;6.87;;;;;;;;;;5025100;28;20204;-79
2022/11/05 02:57:17;;;;;;;8.87;6.70;;;;;;;;;;5045938;28;20180;-79
2022/11/05 03:00:43;;;;;;;10.57;7.20;;;;;;;;;;5034392;28;20176;-79
2022/11/05 03:03:50;;;;;;;11.77;6.83;;;;;;;;;;5022955;28;20180;-79
2022/11/05 03:07:03;;;;;;;7.17;6.27;;;;;;;;;;5045714;28;20279;-79
2022/11/05 03:10:44;;;;;;;9.13;7.00;;;;;;;;;;5033982;28;20585;-78
2022/11/05 03:13:58;;;;;;;9.73;7.30;;;;;;;;;;5036013;28;20211;-78
2022/11/05 03:17:02;;;;;;;9.63;7.33;;;;;;;;;;5045619;28;20192;-78
2022/11/05 03:20:25;;;;;;;10.50;7.37;;;;;;;;;;5057617;28;20184;-79
2022/11/05 03:23:41;;;;;;;9.77;7.00;;;;;;;;;;5045964;28;20218;-79
2022/11/05 03:27:06;;;;;;;10.93;7.50;;;;;;;;;;5022669;28;20188;-78
2022/11/05 03:30:13;;;;;;;10.57;7.40;;;;;;;;;;5033610;28;20212;-79
2022/11/05 03:33:22;;;;;;;9.57;7.23;;;;;;;;;;5045043;28;20180;-78
2022/11/05 03:36:40;;;;;;;11.10;8.10;;;;;;;;;;5057055;28;20188;-78
2022/11/05 03:39:49;;;;;;;11.80;7.80;;;;;;;;;;5034535;28;20180;-76
2022/11/05 03:42:57;;;;;;;10.57;7.90;;;;;;;;;;5057182;28;20180;-77
2022/11/05 03:46:16;;;;;;;10.17;7.60;;;;;;;;;;5033490;28;20184;-78
2022/11/05 03:49:26;;;;;;;11.20;8.33;;;;;;;;;;5034151;28;20662;-78
2022/11/05 03:52:36;;;;;;;10.80;7.77;;;;;;;;;;5034316;28;20567;-78
2022/11/05 03:55:49;;;;;;;10.93;7.90;;;;;;;;;;5033729;28;20666;-78
2022/11/05 03:58:55;;;;;;;10.77;7.63;;;;;;;;;;5061509;28;20243;-79
2022/11/05 04:02:01;;;;;;;12.17;8.47;;;;;;;;;;5037112;28;20219;-78
2022/11/05 04:05:06;;;;;;;13.53;8.33;;;;;;;;;;5048458;28;20631;-79
2022/11/05 04:14:55;;;;;;;10.63;8.13;;;;;;;;;;5038239;28;20523;-78
2022/11/05 04:17:59;;;;;;;13.30;9.67;;;;;;;;;;5060928;28;20519;-78
2022/11/05 04:24:27;;;;;;;16.93;9.60;;;;;;;;;;5048212;28;20184;-80
2022/11/05 04:27:31;;;;;;;12.47;8.60;;;;;;;;;;5046894;28;20192;-80
2022/11/05 04:30:35;;;;;;;11.87;9.37;;;;;;;;;;5046887;28;20177;-79
2022/11/05 04:33:39;;;;;;;12.87;10.13;;;;;;;;;;5046856;28;20196;-79
2022/11/05 04:36:51;;;;;;;15.83;9.47;;;;;;;;;;5046657;28;20211;-79
2022/11/05 04:39:55;;;;;;;12.73;9.33;;;;;;;;;;5058134;28;20512;-79
2022/11/05 04:42:59;;;;;;;15.13;10.83;;;;;;;;;;5035078;28;20516;-79
2022/11/05 04:46:03;;;;;;;14.33;10.90;;;;;;;;;;5046377;28;20180;-79
2022/11/05 04:49:08;;;;;;;13.57;9.63;;;;;;;;;;5046935;28;20215;-79
2022/11/05 04:52:12;;;;;;;12.13;9.60;;;;;;;;;;5058960;28;20223;-79
2022/11/05 04:55:16;;;;;;;11.90;9.90;;;;;;;;;;5046744;28;20631;-78
2022/11/05 04:58:20;;;;;;;12.40;9.33;;;;;;;;;;5022734;28;20634;-79
2022/11/05 05:01:24;;;;;;;13.80;9.90;;;;;;;;;;5044506;28;20223;-79
2022/11/05 05:04:29;;;;;;;11.47;8.80;;;;;;;;;;5044851;28;20184;-79
2022/11/05 05:07:33;;;;;;;14.07;9.73;;;;;;;;;;5048339;28;20203;-79
2022/11/05 05:10:37;;;;;;;14.73;9.63;;;;;;;;;;5039398;28;20212;-80
2022/11/05 05:13:42;;;;;;;12.93;9.80;;;;;;;;;;5040319;28;20180;-79
2022/11/05 05:16:47;;;;;;;19.00;9.27;;;;;;;;;;5052600;28;20200;-81
2022/11/05 05:23:14;;;;;;;12.57;8.90;;;;;;;;;;5041678;28;20184;-81
2022/11/05 05:26:18;;;;;;;10.17;8.63;;;;;;;;;;5040680;28;20520;-80
2022/11/05 05:29:22;;;;;;;9.17;7.30;;;;;;;;;;5039823;28;20208;-79
2022/11/05 05:32:27;;;;;;;12.47;8.10;;;;;;;;;;5063501;28;20227;-79
2022/11/05 05:35:31;;;;;;;10.00;7.53;;;;;;;;;;5050941;28;20666;-79
2022/11/05 05:38:35;;;;;;;9.93;8.23;;;;;;;;;;5062345;28;20188;-79
2022/11/05 05:41:39;;;;;;;13.47;8.23;;;;;;;;;;5049928;28;20562;-79
2022/11/05 05:44:43;;;;;;;11.20;8.03;;;;;;;;;;5049095;28;20184;-79
2022/11/05 05:47:47;;;;;;;14.83;9.70;;;;;;;;;;5059382;28;20184;-79
2022/11/05 05:50:51;;;;;;;11.03;8.13;;;;;;;;;;5061199;28;20224;-78
2022/11/05 05:53:55;;;;;;;11.13;8.27;;;;;;;;;;5048849;28;20179;-78
2022/11/05 05:57:00;;;;;;;9.33;7.53;;;;;;;;;;5036027;28;20547;-79
2022/11/05 06:00:05;;;;;;;11.57;8.93;;;;;;;;;;5060514;28;20188;-78
2022/11/05 06:03:16;;;;;;;11.30;8.60;;;;;;;;;;5047243;28;20626;-79
2022/11/05 06:06:19;;;;;;;11.13;8.20;;;;;;;;;;5046106;28;20662;-79
2022/11/05 06:09:23;;;;;;;10.70;7.97;;;;;;;;;;5059934;23;20236;-91
2022/11/05 06:12:28;;;;;;;12.43;8.20;;;;;;;;;;4990399;28;20182;-91
2022/11/05 06:15:32;;;;;;;10.33;7.93;;;;;;;;;;5011940;28;20189;-91
2022/11/05 06:18:38;;;;;;;12.73;8.93;;;;;;;;;;4999701;28;20221;-91
2022/11/05 06:21:42;;;;;;;11.37;8.77;;;;;;;;;;4969117;28;20672;-91
2022/11/05 06:24:46;;;;;;;11.63;8.47;;;;;;;;;;4980156;28;20195;-91
2022/11/05 06:27:50;;;;;;;14.73;8.43;;;;;;;;;;4980149;28;20178;-91
2022/11/05 06:30:55;;;;;;;12.43;8.63;;;;;;;;;;4979461;28;20206;-92
2022/11/05 06:33:59;;;;;;;10.13;8.47;;;;;;;;;;4968903;28;20205;-90
2022/11/05 06:37:04;;;;;;;13.67;9.00;;;;;;;;;;5003202;28;20205;-91
2022/11/05 06:40:08;;;;;;;10.83;8.00;;;;;;;;;;4965941;28;20178;-91
2022/11/05 06:43:13;;;;;;;13.10;8.97;;;;;;;;;;4978376;28;20190;-91
2022/11/05 06:46:17;;;;;;;15.57;12.60;;;;;;;;;;4983918;28;20197;-91
2022/11/05 06:49:24;;;;;;;11.80;9.83;;;;;;;;;;4983075;28;20232;-91
2022/11/05 06:52:30;;;;;;;14.17;9.87;;;;;;;;;;4995358;28;20543;-91
2022/11/05 06:55:34;;;;;;;12.80;9.53;;;;;;;;;;4996085;28;20209;-91
2022/11/05 06:58:38;;;;;;;14.60;10.93;;;;;;;;;;4994249;28;20228;-91
2022/11/05 07:01:42;;;;;;;14.23;9.90;;;;;;;;;;4994247;28;20572;-91
2022/11/05 07:04:46;;;;;;;14.20;10.73;;;;;;;;;;4979827;28;20664;-91
2022/11/05 07:07:51;;;;;;;15.30;10.83;;;;;;;;;;4991731;28;20212;-92
2022/11/05 07:10:55;;;;;;;16.27;12.30;;;;;;;;;;4981814;28;20232;-90
2022/11/05 07:14:00;;;;;;;16.30;11.47;;;;;;;;;;4997614;28;20570;-90
2022/11/05 07:17:04;;;;;;;16.97;12.53;;;;;;;;;;4990420;28;20189;-89
2022/11/05 07:20:09;;;;;;;16.00;12.27;;;;;;;;;;4990645;28;20561;-88
2022/11/05 07:23:15;;;;;;;14.20;12.10;;;;;;;;;;4981168;28;20558;-89
2022/11/05 07:26:19;;;;;;;16.47;10.53;;;;;;;;;;4991536;28;20194;-89
2022/11/05 07:29:23;;;;;;;18.20;11.10;;;;;;;;;;5006093;28;20237;-89
2022/11/05 07:32:27;;;;;;;13.47;10.57;;;;;;;;;;4991159;28;20188;-89
2022/11/05 07:35:31;;;;;;;16.03;11.23;;;;;;;;;;5006492;28;20199;-89
2022/11/05 07:38:35;;;;;;;20.17;16.27;;;;;;;;;;4984241;28;20229;-89
2022/11/05 07:41:39;;;;;;;12.50;11.20;;;;;;;;;;5009591;28;20244;-90
2022/11/05 07:44:43;;;;;;;10.93;8.97;;;;;;;;;;4993451;28;20214;-91
2022/11/05 07:47:59;;;;;;;12.73;9.60;;;;;;;;;;4994472;28;20197;-90
2022/11/05 07:51:03;;;;;;;12.27;9.37;;;;;;;;;;4982126;28;20538;-90
2022/11/05 07:54:07;;;;;;;11.70;9.10;;;;;;;;;;4993770;28;20193;-91
2022/11/05 07:57:11;;;;;;;11.73;7.80;;;;;;;;;;4992062;28;20193;-90
2022/11/05 08:00:20;;;;;;;11.77;8.33;;;;;;;;;;4993084;28;20189;-91
2022/11/05 08:03:24;;;;;;;9.63;7.83;;;;;;;;;;4993397;28;20190;-90
2022/11/05 08:06:28;;;;;;;10.70;8.47;;;;;;;;;;5005694;28;20193;-90
2022/11/05 08:09:32;;;;;;;9.83;8.13;;;;;;;;;;4994776;28;20225;-89
2022/11/05 08:12:36;;;;;;;12.00;8.80;;;;;;;;;;4964177;28;20183;-90
2022/11/05 08:15:41;;;;;;;20.07;14.70;;;;;;;;;;4964799;28;20186;-89
2022/11/05 08:18:47;;;;;;;12.00;9.97;;;;;;;;;;4964290;28;20228;-90
2022/11/05 08:21:51;;;;;;;9.70;7.37;;;;;;;;;;4964462;28;20179;-89
2022/11/05 08:24:55;;;;;;;12.97;8.50;;;;;;;;;;4964108;28;20641;-89
2022/11/05 08:28:09;;;;;;;8.30;7.30;;;;;;;;;;4975786;28;20230;-88
2022/11/05 08:31:14;;;;;;;13.83;7.50;;;;;;;;;;4978151;28;20218;-87
2022/11/05 08:34:19;;;;;;;10.53;6.87;;;;;;;;;;4965851;28;20195;-88
2022/11/05 08:37:23;;;;;;;8.67;5.87;;;;;;;;;;4966062;28;20309;-88
2022/11/05 08:40:29;;;;;;;7.80;6.67;;;;;;;;;;4965333;28;20183;-88
2022/11/05 08:43:37;;;;;;;8.80;6.47;;;;;;;;;;4964966;28;20186;-88
2022/11/05 08:46:41;;;;;;;9.00;5.63;;;;;;;;;;4969831;28;20190;-87
2022/11/05 08:49:46;;;;;;;7.13;6.37;;;;;;;;;;4986199;28;20221;-88
2022/11/05 08:52:50;;;;;;;8.20;6.83;;;;;;;;;;4997275;28;20205;-87
2022/11/05 08:55:58;;;;;;;8.17;7.17;;;;;;;;;;4986507;28;20206;-87
2022/11/05 08:59:02;;;;;;;10.87;7.03;;;;;;;;;;4997080;28;20217;-88
2022/11/05 09:02:08;;;;;;;8.63;7.37;;;;;;;;;;4986660;28;20177;-87
2022/11/05 09:05:13;;;;;;;13.60;12.03;;;;;;;;;;4985122;28;20178;-87
2022/11/05 09:08:17;;;;;;;8.60;6.77;;;;;;;;;;4984068;28;20236;-87
2022/11/05 09:11:22;;;;;;;7.80;7.00;;;;;;;;;;4984221;28;20206;-87
2022/11/05 09:14:28;;;;;;;8.63;6.27;;;;;;;;;;4984167;28;20190;-86
2022/11/05 09:17:33;;;;;;;7.47;6.50;;;;;;;;;;4986146;28;20628;-87
2022/11/05 09:20:38;;;;;;;8.47;7.57;;;;;;;;;;4986405;28;20185;-87
2022/11/05 09:23:43;;;;;;;8.40;7.53;;;;;;;;;;4985038;28;20189;-87
2022/11/05 09:26:48;;;;;;;7.53;6.40;;;;;;;;;;4995779;28;20185;-87
2022/11/05 09:29:52;;;;;;;8.00;5.80;;;;;;;;;;4995754;28;20225;-86
2022/11/05 09:32:56;;;;;;;5.77;5.20;;;;;;;;;;4985310;28;20185;-85
2022/11/05 09:36:00;;;;;;;5.70;5.17;;;;;;;;;;4985295;28;20189;-86
2022/11/05 09:39:04;;;;;;;7.07;5.83;;;;;;;;;;4984727;28;20225;-86
2022/11/05 09:42:12;;;;;;;7.60;6.80;;;;;;;;;;4983509;28;20518;-88
2022/11/05 09:45:21;;;;;;;5.70;5.10;;;;;;;;;;4982729;28;20518;-91
2022/11/05 09:48:29;;;;;;;4.87;4.30;;;;;;;;;;4982725;28;20217;-88
2022/11/05 09:51:35;;;;;;;5.83;5.33;;;;;;;;;;4983191;28;20209;-90
2022/11/05 09:54:40;;;;;;;6.57;5.50;;;;;;;;;;4982588;28;20190;-90
2022/11/05 09:57:52;;;;;;;5.50;4.80;;;;;;;;;;4982924;28;20624;-91
2022/11/05 10:00:56;;;;;;;9.63;4.90;;;;;;;;;;4984518;28;20193;-91
2022/11/05 10:04:06;;;;;;;6.10;4.67;;;;;;;;;;4983222;28;20189;-87
2022/11/05 10:07:15;;;;;;;6.23;5.63;;;;;;;;;;4988356;28;20190;-88
2022/11/05 10:10:33;;;;;;;5.80;4.87;;;;;;;;;;4997866;28;20210;-88
2022/11/05 10:13:49;;;;;;;7.30;6.70;;;;;;;;;;4985518;28;20198;-88
2022/11/05 10:17:00;;;;;;;10.77;7.77;;;;;;;;;;4995585;28;20197;-88
2022/11/05 10:20:30;;;;;;;5.67;4.67;;;;;;;;;;4984216;28;20193;-88
2022/11/05 10:23:35;;;;;;;31.60;25.53;;;;;;;;;;4984478;28;20194;-88
2022/11/05 10:26:40;;;;;;;7.27;6.63;;;;;;;;;;4993343;28;20197;-87
2022/11/05 10:29:44;;;;;;;4.80;3.70;;;;;;;;;;4983974;28;20217;-88
2022/11/05 10:32:53;;;;;;;4.80;3.90;;;;;;;;;;4991808;28;20186;-87
2022/11/05 10:36:02;;;;;;;4.60;4.20;;;;;;;;;;4990943;28;20201;-90
2022/11/05 10:39:18;;;;;;;5.20;4.70;;;;;;;;;;4991697;28;20228;-90
2022/11/05 10:42:28;;;;;;;4.60;4.10;;;;;;;;;;4980995;28;20186;-90
2022/11/05 10:45:51;;;;;;;5.37;4.40;;;;;;;;;;5002981;28;20668;-89
2022/11/05 10:49:04;;;;;;;7.33;5.97;;;;;;;;;;5019787;28;20338;-88
2022/11/05 10:52:20;;;;;;;15.17;13.57;;;;;;;;;;4988667;28;20209;-88
2022/11/05 10:55:35;;;;;;;28.90;23.53;;;;;;;;;;4998199;28;20196;-88
2022/11/05 10:58:53;;;;;;;24.57;18.10;;;;;;;;;;4995155;28;20228;-88
2022/11/05 11:02:20;;;;;;;6.17;5.23;;;;;;;;;;4974402;28;20201;-89
2022/11/05 11:05:31;;;;;;;6.90;5.60;;;;;;;;;;4972942;28;20183;-87
2022/11/05 11:08:36;;;;;;;7.57;6.63;;;;;;;;;;4969187;28;20236;-89
2022/11/05 11:11:41;;;;;;;7.43;5.17;;;;;;;;;;4981745;28;20209;-89
2022/11/05 11:15:20;;;;;;;4.53;4.00;;;;;;;;;;4993770;28;20197;-89
2022/11/05 11:18:38;;;;;;;4.47;3.67;;;;;;;;;;4981130;28;20221;-87
2022/11/05 11:21:48;;;;;;;3.73;3.23;;;;;;;;;;4991867;28;20193;-89
2022/11/05 11:24:53;;;;;;;4.50;3.60;;;;;;;;;;4981073;28;20232;-88
2022/11/05 11:28:02;;;;;;;3.33;3.03;;;;;;;;;;4999505;28;20221;-88
2022/11/05 11:31:15;;;;;;;5.13;3.30;;;;;;;;;;4980434;28;20213;-88
2022/11/05 11:34:32;;;;;;;3.50;3.10;;;;;;;;;;4980808;28;20185;-88
2022/11/05 11:37:41;;;;;;;2.90;2.67;;;;;;;;;;4991740;28;20193;-89
2022/11/05 11:40:45;;;;;;;3.20;2.90;;;;;;;;;;4982917;28;20561;-90
2022/11/05 11:43:54;;;;;;;4.73;3.00;;;;;;;;;;4982983;28;20197;-91
2022/11/05 11:47:49;;;;;;;3.60;3.20;;;;;;;;;;4972280;28;20190;-90
2022/11/05 11:52:14;;;;;;;3.20;2.90;;;;;;;;;;4994319;28;20222;-89
2022/11/05 11:55:20;;;;;;;2.90;2.53;;;;;;;;;;4962721;28;20190;-88
2022/11/05 11:58:40;;;;;;;3.50;2.90;;;;;;;;;;5002427;28;20221;-89
2022/11/05 12:02:22;;;;;;;4.23;3.27;;;;;;;;;;4980142;28;20182;-88
2022/11/05 12:05:38;;;;;;;3.87;2.70;;;;;;;;;;4980211;28;20185;-87
2022/11/05 12:09:06;;;;;;;2.97;2.50;;;;;;;;;;4966742;28;20237;-86
2022/11/05 12:12:16;;;;;;;4.43;2.50;;;;;;;;;;4976680;23;20243;-77
2022/11/05 12:16:03;;;;;;;3.00;2.60;;;;;;;;;;4956355;28;20241;-76
2022/11/05 12:19:16;;;;;;;2.87;2.47;;;;;;;;;;4918148;29;20189;-77
2022/11/05 12:22:38;;;;;;;3.00;2.70;;;;;;;;;;4919962;29;20229;-77
2022/11/05 12:25:49;;;;;;;3.17;2.40;;;;;;;;;;4975266;28;20202;-76
2022/11/05 12:29:12;;;;;;;3.10;2.80;;;;;;;;;;4967188;28;20187;-77
2022/11/05 12:32:38;;;;;;;3.73;3.00;;;;;;;;;;4967111;28;20238;-77
2022/11/05 12:36:04;;;;;;;2.87;2.57;;;;;;;;;;4978874;28;20187;-77
2022/11/05 12:39:18;;;;;;;2.80;2.60;;;;;;;;;;4977592;28;20191;-77
2022/11/05 12:42:50;;;;;;;6.40;2.67;;;;;;;;;;4978240;28;20722;-76
2022/11/05 12:46:43;;;;;;;3.63;2.80;;;;;;;;;;4979007;28;20186;-77
2022/11/05 12:50:07;;;;;;;5.90;4.50;;;;;;;;;;4978631;28;20198;-77
2022/11/05 12:53:58;;;;;;;6.53;3.60;;;;;;;;;;4978680;28;20187;-76
2022/11/05 12:57:03;;;;;;;11.97;10.67;;;;;;;;;;4984206;28;20187;-76
2022/11/05 13:00:23;;;;;;;7.33;6.67;;;;;;;;;;4977377;28;20308;-77
2022/11/05 13:03:37;;;;;;;5.07;4.57;;;;;;;;;;4978820;28;20187;-78
2022/11/05 13:06:46;;;;;;;4.47;3.57;;;;;;;;;;4966762;28;20195;-76
2022/11/05 13:10:12;;;;;;;69.03;56.60;;;;;;;;;;4977617;28;20187;-77
2022/11/05 13:13:25;;;;;;;6.40;4.80;;;;;;;;;;4966476;28;20179;-77
2022/11/05 13:16:37;;;;;;;3.30;3.00;;;;;;;;;;4966258;28;20191;-76
2022/11/05 13:20:02;;;;;;;3.30;3.00;;;;;;;;;;4977290;28;20531;-77
2022/11/05 13:23:38;;;;;;;2.77;2.40;;;;;;;;;;4966593;28;20595;-77
2022/11/05 13:26:49;;;;;;;2.60;2.40;;;;;;;;;;4966551;28;20195;-77
2022/11/05 13:30:06;;;;;;;3.30;2.30;;;;;;;;;;4965624;28;20187;-76
2022/11/05 13:33:16;;;;;;;2.70;2.50;;;;;;;;;;4977448;28;20219;-77
2022/11/05 13:39:53;;;;;;;3.37;2.60;;;;;;;;;;4966489;28;20308;-79
2022/11/05 13:43:28;;;;;;;2.77;2.33;;;;;;;;;;4966585;28;20179;-78
2022/11/05 13:47:09;;;;;;;2.60;2.40;;;;;;;;;;4966316;28;20186;-79
2022/11/05 13:50:22;;;;;;;2.70;2.30;;;;;;;;;;4977248;28;20203;-77
2022/11/05 13:53:45;;;;;;;3.83;2.17;;;;;;;;;;4978405;28;20658;-76
2022/11/05 13:57:09;;;;;;;3.23;2.37;;;;;;;;;;4964909;28;20203;-76
2022/11/05 14:00:26;;;;;;;4.90;2.40;;;;;;;;;;4963085;28;20191;-76
2022/11/05 14:03:30;;;;;;;2.33;2.13;;;;;;;;;;4976348;28;20664;-77
2022/11/05 14:06:35;;;;;;;7.30;5.23;;;;;;;;;;4965680;28;20183;-77
2022/11/05 14:09:41;;;;;;;3.17;2.87;;;;;;;;;;4977388;28;20191;-78
2022/11/05 14:12:49;;;;;;;1.93;1.83;;;;;;;;;;4964967;28;20238;-77
2022/11/05 14:16:17;;;;;;;3.03;1.73;;;;;;;;;;4965676;28;20183;-77
2022/11/05 14:19:32;;;;;;;2.77;1.80;;;;;;;;;;4978256;28;20628;-76
2022/11/05 14:22:40;;;;;;;3.43;1.53;;;;;;;;;;4964635;28;20223;-77
2022/11/05 14:25:44;;;;;;;2.90;1.80;;;;;;;;;;4977203;28;20183;-77
2022/11/05 14:28:49;;;;;;;1.60;1.50;;;;;;;;;;4976381;28;20191;-78
2022/11/05 14:31:55;;;;;;;3.20;1.80;;;;;;;;;;4965788;28;20230;-78
2022/11/05 14:35:03;;;;;;;4.20;1.77;;;;;;;;;;4966338;28;20179;-77
2022/11/05 14:38:23;;;;;;;4.27;1.77;;;;;;;;;;4966280;28;20191;-77
2022/11/05 14:41:28;;;;;;;29.97;3.10;;;;;;;;;;4978114;28;20218;-78
2022/11/05 14:44:34;;;;;;;2.97;1.73;;;;;;;;;;4966664;28;20196;-80
2022/11/05 14:47:49;;;;;;;3.53;2.20;;;;;;;;;;4955809;28;20186;-78
2022/11/05 14:50:53;;;;;;;2.37;1.70;;;;;;;;;;4955221;28;20222;-77
2022/11/05 14:54:21;;;;;;;2.30;1.90;;;;;;;;;;4977359;28;20183;-84
2022/11/05 14:57:41;;;;;;;15.60;3.83;;;;;;;;;;4966305;28;20190;-86
2022/11/05 15:00:46;;;;;;;1.90;1.67;;;;;;;;;;4954875;28;20589;-80
2022/11/05 15:04:15;;;;;;;4.97;1.80;;;;;;;;;;4954904;28;20182;-78
2022/11/05 15:07:22;;;;;;;2.67;2.00;;;;;;;;;;4957434;28;20182;-80
2022/11/05 15:10:36;;;;;;;4.57;1.90;;;;;;;;;;4958667;28;20216;-81
2022/11/05 15:13:52;;;;;;;4.67;3.40;;;;;;;;;;4959153;28;20563;-80
2022/11/05 15:17:31;;;;;;;4.97;2.10;;;;;;;;;;4959111;28;20195;-81
2022/11/05 15:20:41;;;;;;;3.77;3.03;;;;;;;;;;4955585;28;20202;-80
2022/11/05 15:23:48;;;;;;;3.53;2.00;;;;;;;;;;4958625;28;20203;-80
2022/11/05 15:27:11;;;;;;;2.13;1.67;;;;;;;;;;4960655;28;20669;-81
2022/11/05 15:30:21;;;;;;;2.53;1.90;;;;;;;;;;4965587;28;20203;-80
2022/11/05 15:33:25;;;;;;;3.93;3.63;;;;;;;;;;4968747;28;20219;-81
2022/11/05 15:36:30;;;;;;;5.97;4.70;;;;;;;;;;4966110;28;20195;-80
2022/11/05 15:39:42;;;;;;;4.47;3.90;;;;;;;;;;4959151;28;20673;-80
2022/11/05 15:43:06;;;;;;;3.40;2.20;;;;;;;;;;4974248;28;20227;-81
2022/11/05 15:46:15;;;;;;;3.40;1.90;;;;;;;;;;4969122;28;20194;-80
2022/11/05 15:49:19;;;;;;;2.23;2.00;;;;;;;;;;4974587;28;20662;-80
2022/11/05 15:52:35;;;;;;;3.40;3.10;;;;;;;;;;4966214;28;20226;-80
2022/11/05 15:55:51;;;;;;;5.07;3.73;;;;;;;;;;4973737;28;20206;-79
2022/11/05 15:59:02;;;;;;;10.03;7.13;;;;;;;;;;4972150;28;20206;-80
2022/11/05 16:02:12;;;;;;;7.30;4.80;;;;;;;;;;4965683;28;20226;-81
2022/11/05 16:05:16;;;;;;;4.20;3.80;;;;;;;;;;4965218;28;20661;-76
2022/11/05 16:08:23;;;;;;;3.50;3.20;;;;;;;;;;4964303;28;20224;-77
2022/11/05 16:11:27;;;;;;;5.80;2.90;;;;;;;;;;4963021;28;20238;-77
2022/11/05 16:14:34;;;;;;;3.90;2.50;;;;;;;;;;4956559;28;20669;-77
2022/11/05 16:18:05;;;;;;;3.53;2.60;;;;;;;;;;4973969;28;20198;-77
2022/11/05 16:21:23;;;;;;;2.33;2.10;;;;;;;;;;4973055;28;20219;-77
2022/11/05 16:24:27;;;;;;;3.47;2.37;;;;;;;;;;4976004;28;20187;-77
2022/11/05 16:27:31;;;;;;;3.67;2.03;;;;;;;;;;4986563;28;20186;-82
2022/11/05 16:30:36;;;;;;;2.03;1.70;;;;;;;;;;4963302;28;20202;-79
2022/11/05 16:33:44;;;;;;;2.83;2.20;;;;;;;;;;4972157;28;20226;-79
2022/11/05 16:36:49;;;;;;;5.20;2.00;;;;;;;;;;4961511;28;20191;-79
2022/11/05 16:39:54;;;;;;;4.47;2.43;;;;;;;;;;4973030;28;20194;-80
2022/11/05 16:43:16;;;;;;;4.73;2.60;;;;;;;;;;4961203;28;20179;-79
2022/11/05 16:46:22;;;;;;;4.33;3.53;;;;;;;;;;4969296;28;20191;-79
2022/11/05 16:49:27;;;;;;;16.80;13.93;;;;;;;;;;4981743;28;20195;-79
2022/11/05 16:52:31;;;;;;;8.60;7.60;;;;;;;;;;4957644;28;20241;-79
2022/11/05 16:55:37;;;;;;;9.77;8.10;;;;;;;;;;4969143;28;20183;-79
2022/11/05 16:58:44;;;;;;;5.23;4.50;;;;;;;;;;4970847;28;20206;-79
2022/11/05 17:01:48;;;;;;;4.17;3.10;;;;;;;;;;4971184;28;20693;-79
2022/11/05 17:04:52;;;;;;;5.20;4.50;;;;;;;;;;4980545;28;20187;-80
2022/11/05 17:07:57;;;;;;;10.27;6.70;;;;;;;;;;4972389;28;20186;-79
2022/11/05 17:11:02;;;;;;;12.97;7.43;;;;;;;;;;4971868;28;20226;-79
2022/11/05 17:14:11;;;;;;;5.50;4.70;;;;;;;;;;4971386;28;20214;-79
2022/11/05 17:17:15;;;;;;;4.00;3.50;;;;;;;;;;4985802;28;20186;-78
2022/11/05 17:20:36;;;;;;;4.00;3.33;;;;;;;;;;4975299;28;20207;-79
2022/11/05 17:23:40;;;;;;;5.07;4.60;;;;;;;;;;4971965;28;20179;-79
2022/11/05 17:26:45;;;;;;;5.83;4.43;;;;;;;;;;4963242;28;20646;-78
2022/11/05 17:29:49;;;;;;;5.33;4.60;;;;;;;;;;4973083;28;20523;-78
2022/11/05 17:32:54;;;;;;;20.37;18.63;;;;;;;;;;4962030;28;20219;-79
2022/11/05 17:36:03;;;;;;;9.37;7.97;;;;;;;;;;4972676;28;20207;-78
2022/11/05 17:39:09;;;;;;;9.27;8.33;;;;;;;;;;4973772;28;20183;-79
2022/11/05 17:42:14;;;;;;;6.57;5.60;;;;;;;;;;4982791;28;20555;-78
2022/11/05 17:45:18;;;;;;;8.57;5.07;;;;;;;;;;4973179;28;20191;-79
2022/11/05 17:48:22;;;;;;;7.20;5.73;;;;;;;;;;4983106;28;20195;-77
2022/11/05 17:51:26;;;;;;;8.33;5.43;;;;;;;;;;4983851;28;20215;-78
2022/11/05 17:54:31;;;;;;;9.97;7.90;;;;;;;;;;4961826;28;20187;-78
2022/11/05 17:57:35;;;;;;;7.17;5.53;;;;;;;;;;4948971;28;20194;-79
2022/11/05 18:00:41;;;;;;;6.73;6.03;;;;;;;;;;4972161;28;20187;-79
2022/11/05 18:03:45;;;;;;;6.03;5.03;;;;;;;;;;4973925;28;20179;-78
2022/11/05 18:06:50;;;;;;;8.30;5.50;;;;;;;;;;4961322;28;20191;-79
2022/11/05 18:09:54;;;;;;;11.20;5.07;;;;;;;;;;4984205;28;20183;-79
2022/11/05 18:12:58;;;;;;;7.43;5.30;;;;;;;;;;5002785;23;20233;-77
2022/11/05 18:16:02;;;;;;;6.60;5.07;;;;;;;;;;4976545;28;20201;-77
2022/11/05 18:19:06;;;;;;;8.03;5.43;;;;;;;;;;4987791;28;20217;-77
2022/11/05 18:22:10;;;;;;;6.27;4.93;;;;;;;;;;4982413;28;20569;-77
2022/11/05 18:25:16;;;;;;;10.00;7.80;;;;;;;;;;4985119;28;20695;-76
2022/11/05 18:28:20;;;;;;;15.47;10.73;;;;;;;;;;4991803;28;20210;-78
2022/11/05 18:31:24;;;;;;;31.53;21.40;;;;;;;;;;5009155;28;20232;-77
2022/11/05 18:34:28;;;;;;;29.83;21.80;;;;;;;;;;4982815;28;20238;-79
2022/11/05 18:37:32;;;;;;;43.97;34.70;;;;;;;;;;4983273;28;20186;-78
2022/11/05 18:40:36;;;;;;;29.87;26.27;;;;;;;;;;4971790;28;20542;-77
2022/11/05 18:43:41;;;;;;;26.73;21.60;;;;;;;;;;4982697;28;20216;-77
2022/11/05 18:46:45;;;;;;;19.47;14.97;;;;;;;;;;5004379;28;20226;-77
2022/11/05 18:49:49;;;;;;;24.97;21.80;;;;;;;;;;5002140;28;20517;-78
2022/11/05 18:52:53;;;;;;;21.20;15.57;;;;;;;;;;5001894;28;20580;-77
2022/11/05 18:55:57;;;;;;;23.17;15.70;;;;;;;;;;5001890;28;20652;-77
2022/11/05 18:59:02;;;;;;;39.10;26.13;;;;;;;;;;5001739;28;20189;-77
2022/11/05 19:02:09;;;;;;;19.17;13.43;;;;;;;;;;5013623;28;20221;-77
2022/11/05 19:05:13;;;;;;;9.27;6.23;;;;;;;;;;5001566;28;20190;-77
2022/11/05 19:08:17;;;;;;;9.83;6.00;;;;;;;;;;5001824;28;20185;-77
2022/11/05 19:11:24;;;;;;;6.37;5.33;;;;;;;;;;5014043;28;20225;-77
2022/11/05 19:14:28;;;;;;;9.27;5.73;;;;;;;;;;5013431;28;20224;-77
2022/11/05 19:17:33;;;;;;;10.80;5.73;;;;;;;;;;5002158;28;20185;-78
2022/11/05 19:20:37;;;;;;;7.17;5.40;;;;;;;;;;5003019;28;20632;-78
2022/11/05 19:23:41;;;;;;;6.83;5.50;;;;;;;;;;5003211;28;20182;-78
2022/11/05 19:26:46;;;;;;;8.50;5.53;;;;;;;;;;5001877;28;20185;-78
2022/11/05 19:29:51;;;;;;;6.67;5.30;;;;;;;;;;5001611;28;20198;-77